Rowena, Missouri
Current Conditions -  °F | °C
As of 1:54 PM on Thursday 23 Oct 2014 (Local Time) from KCOU Reporting Station
Overcast Overcast  
Wind Chill: 14°   Ceiling: 8000
Heat Index: 14°   Visibility: 10mi
Dew Point:   Wind: 8mph
Humidity: 74%   Direction: 190°S
Pressure: 30.12"   Gusts: NA
Location:  39.2043°N, 92.1568°W
Report Text: KCOU 231854Z 19007KT 10SM FEW060 OVC080 14/09 A3012 RMK AO2 RAB41E50 SLP199 P0000 T01390094
Loading
Personal Weather Stations






























Interactive Weather Map
Tropical Storm Tracking
New forecast layout! Learn more

10-Day Weather Forecast

Advertisements
Track Severe Weather on mobile